Allen, Texas
Current Conditions -  °F | °C
As of 6:53 PM on Tuesday 27 Jan 2015 (Local Time) from KTKI Reporting Station
Clear Clear  
Wind Chill: 17°   Ceiling: Unl
Heat Index: 17°   Visibility: 10mi
Dew Point:   Wind: 3mph
Humidity: 44%   Direction: 160°SSE
Pressure: 30.11"   Gusts: NA
Location:  33.1°N, 96.67°W
Report Text: KTKI 280053Z 16003KT 10SM CLR 17/04 A3011 RMK AO2 SLP203 T01670044
Loading
Personal Weather Stations






























Interactive Weather Map New forecast layout! Learn more

10-Day Weather Forecast

Advertisements
Track Severe Weather on mobile